createdAt,value
2019-05-23T00:03:10.209Z,81.43
2019-05-23T00:08:07.555Z,80.73
2019-05-23T00:13:03.775Z,81.53
2019-05-23T00:17:59.787Z,82.24
2019-05-23T00:22:54.442Z,82.05
2019-05-23T00:27:50.279Z,80.74
2019-05-23T00:32:49.714Z,81.92
2019-05-23T00:37:46.061Z,83.76
2019-05-23T00:42:42.142Z,84.51
2019-05-23T00:47:36.875Z,84.59
2019-05-23T00:52:32.013Z,85.09
2019-05-23T00:57:29.589Z,84.81
2019-05-23T01:02:25.382Z,84.22
2019-05-23T01:07:21.263Z,82.84
2019-05-23T01:12:16.655Z,82.72
2019-05-23T01:17:12.300Z,82.93
2019-05-23T01:22:14.583Z,82.40
2019-05-23T01:27:10.523Z,82.28
2019-05-23T01:32:26.479Z,83.39
2019-05-23T01:37:21.899Z,83.50
2019-05-23T01:42:17.648Z,83.33
2019-05-23T01:47:14.295Z,84.00
2019-05-23T01:52:09.169Z,84.86
2019-05-23T01:57:06.064Z,85.79
2019-05-23T02:02:00.833Z,86.20
2019-05-23T02:06:56.871Z,86.87
2019-05-23T02:11:52.362Z,86.88
2019-05-23T02:16:47.894Z,87.39
2019-05-23T02:21:43.241Z,87.54
2019-05-23T02:26:39.219Z,88.00
2019-05-23T02:31:35.362Z,88.73
2019-05-23T02:36:30.684Z,89.14
2019-05-23T02:41:27.553Z,89.21
2019-05-23T02:46:31.707Z,89.26
2019-05-23T02:51:32.725Z,89.02
2019-05-23T02:56:32.049Z,88.91
2019-05-23T03:01:44.272Z,88.75
2019-05-23T03:06:41.494Z,88.95
2019-05-23T03:11:39.305Z,89.90
2019-05-23T03:16:38.681Z,90.57
2019-05-23T03:21:33.748Z,91.27
2019-05-23T03:27:03.136Z,91.63
2019-05-23T03:32:15.958Z,92.23
2019-05-23T03:37:12.725Z,91.77
2019-05-23T03:42:08.470Z,92.29
2019-05-23T03:47:04.695Z,92.62
2019-05-23T03:52:01.243Z,91.43
2019-05-23T03:56:55.818Z,91.79
2019-05-23T04:01:52.760Z,92.08
2019-05-23T04:06:48.442Z,91.21
2019-05-23T04:11:43.192Z,89.01
2019-05-23T04:16:38.241Z,84.53
2019-05-23T04:21:32.976Z,79.43
2019-05-23T04:26:28.125Z,76.19
2019-05-23T04:31:23.669Z,74.86
2019-05-23T04:36:20.429Z,70.89
2019-05-23T04:41:15.627Z,68.55
2019-05-23T04:46:10.293Z,69.17
2019-05-23T04:51:06.169Z,66.00
2019-05-23T04:56:03.346Z,62.44
2019-05-23T05:00:58.934Z,57.51
2019-05-23T05:05:53.681Z,55.10
2019-05-23T05:10:48.409Z,55.07
2019-05-23T05:15:43.609Z,57.37
2019-05-23T05:20:38.276Z,60.89
2019-05-23T05:25:32.915Z,60.52
2019-05-23T05:30:32.924Z,56.86
2019-05-23T05:35:29.455Z,51.72
2019-05-23T05:40:32.709Z,49.12
2019-05-23T05:45:39.156Z,45.52
2019-05-23T05:50:36.225Z,45.55
2019-05-23T05:55:34.979Z,45.10
2019-05-23T06:00:36.753Z,44.47
2019-05-23T06:05:49.699Z,45.40
2019-05-23T06:10:45.975Z,44.29
2019-05-23T06:15:45.196Z,43.89
2019-05-23T06:20:43.263Z,44.72
2019-05-23T06:25:37.984Z,46.10
2019-05-23T06:30:34.487Z,47.74
2019-05-23T06:35:29.662Z,48.20
2019-05-23T06:40:25.685Z,49.34
2019-05-23T06:45:22.244Z,50.82
2019-05-23T06:50:20.726Z,51.14
2019-05-23T06:55:15.945Z,50.37
2019-05-23T07:00:14.568Z,49.50
2019-05-23T07:05:10.528Z,48.77
2019-05-23T07:10:11.102Z,47.05
2019-05-23T07:15:07.839Z,50.31
2019-05-23T07:20:03.192Z,49.01
2019-05-23T07:24:59.165Z,48.77
2019-05-23T07:29:53.939Z,49.83
2019-05-23T07:34:48.677Z,48.60
2019-05-23T07:39:44.231Z,47.65
2019-05-23T07:44:48.587Z,47.12
2019-05-23T07:49:43.096Z,46.71
2019-05-23T07:54:39.623Z,46.19
2019-05-23T07:59:34.521Z,46.19
2019-05-23T08:04:30.860Z,46.57
2019-05-23T08:09:28.317Z,47.30
2019-05-23T08:14:23.053Z,48.50
2019-05-23T08:19:19.656Z,47.68
2019-05-23T08:24:16.629Z,50.29
2019-05-23T08:29:25.303Z,49.21
2019-05-23T08:34:11.401Z,47.06
2019-05-23T08:39:10.599Z,45.03
2019-05-23T08:44:11.723Z,45.55
2019-05-23T08:49:08.758Z,46.23
2019-05-23T08:54:05.239Z,46.18
2019-05-23T08:59:00.855Z,47.33
2019-05-23T09:04:04.096Z,47.41
2019-05-23T09:09:02.536Z,44.22
2019-05-23T09:14:01.550Z,44.67
2019-05-23T09:18:58.533Z,44.27
2019-05-23T09:23:53.931Z,41.81
2019-05-23T09:28:49.973Z,40.39
2019-05-23T09:33:44.780Z,41.16
2019-05-23T09:38:40.163Z,41.58
2019-05-23T09:43:36.578Z,41.96
2019-05-23T09:48:31.536Z,43.62
2019-05-23T09:53:26.935Z,43.08
2019-05-23T09:58:21.944Z,42.54
2019-05-23T10:03:21.818Z,39.27
2019-05-23T10:08:17.005Z,40.50
2019-05-23T10:13:11.882Z,39.59
2019-05-23T10:18:07.978Z,39.59
2019-05-23T10:23:03.383Z,44.77
2019-05-23T10:27:58.063Z,42.41
2019-05-23T10:32:52.727Z,40.71
2019-05-23T10:37:47.401Z,41.01
2019-05-23T10:42:42.137Z,42.80
2019-05-23T10:47:38.298Z,40.89
2019-05-23T10:52:34.383Z,39.55
2019-05-23T10:57:29.582Z,39.38
2019-05-23T11:02:26.996Z,38.94
2019-05-23T11:07:21.392Z,37.95
2019-05-23T11:12:16.054Z,40.58
2019-05-23T11:17:12.799Z,41.50
2019-05-23T11:22:08.038Z,41.39
2019-05-23T11:27:03.128Z,39.91
2019-05-23T11:31:59.276Z,41.17
2019-05-23T11:36:59.160Z,35.35
2019-05-23T11:41:55.130Z,38.11
2019-05-23T11:46:51.346Z,36.81
2019-05-23T11:51:53.053Z,35.44
2019-05-23T11:56:51.349Z,35.89
2019-05-23T12:01:49.459Z,38.30
2019-05-23T12:06:55.430Z,36.57
2019-05-23T12:11:47.736Z,36.79
2019-05-23T12:16:42.455Z,34.33
2019-05-23T12:21:37.343Z,34.17
2019-05-23T12:26:36.768Z,32.70
2019-05-23T12:31:31.597Z,33.20
2019-05-23T12:36:27.910Z,31.26
2019-05-23T12:41:22.656Z,31.04
2019-05-23T12:46:17.798Z,33.94
2019-05-23T12:51:15.022Z,32.34
2019-05-23T12:56:09.782Z,30.28
2019-05-23T13:01:06.514Z,31.23
2019-05-23T13:06:01.261Z,29.00
2019-05-23T13:10:55.858Z,30.42
2019-05-23T13:15:51.398Z,29.04
2019-05-23T13:20:46.308Z,29.36
2019-05-23T13:25:41.409Z,31.99
2019-05-23T13:30:36.274Z,33.03
2019-05-23T13:35:31.669Z,31.21
2019-05-23T13:40:26.320Z,30.98
2019-05-23T13:45:21.071Z,30.71
2019-05-23T13:50:17.417Z,32.09
2019-05-23T13:55:12.695Z,33.33
2019-05-23T14:00:18.043Z,33.61
2019-05-23T14:05:18.964Z,33.94
2019-05-23T14:10:12.527Z,34.20
2019-05-23T14:15:11.174Z,32.75
2019-05-23T14:20:07.883Z,33.40
2019-05-23T14:25:03.350Z,32.81
2019-05-23T14:30:07.526Z,32.80
2019-05-23T14:34:58.277Z,33.65
2019-05-23T14:39:54.501Z,34.64
2019-05-23T14:44:49.480Z,35.10
2019-05-23T14:49:48.542Z,35.35
2019-05-23T14:54:45.024Z,34.33
2019-05-23T14:59:39.785Z,33.67
2019-05-23T15:04:34.532Z,34.91
2019-05-23T15:09:29.191Z,35.26
2019-05-23T15:14:23.905Z,35.54
2019-05-23T15:19:38.115Z,34.25
2019-05-23T15:24:15.756Z,32.67
2019-05-23T15:29:10.348Z,29.46
2019-05-23T15:34:05.504Z,29.88
2019-05-23T15:39:09.394Z,31.20
2019-05-23T15:43:56.553Z,31.13
2019-05-23T15:48:51.211Z,30.60
2019-05-23T15:53:48.316Z,30.49
2019-05-23T15:58:44.638Z,31.35
2019-05-23T16:03:41.177Z,30.30
2019-05-23T16:08:35.778Z,30.25
2019-05-23T16:13:30.372Z,31.09
2019-05-23T16:18:25.606Z,31.55
2019-05-23T16:23:20.470Z,31.80
2019-05-23T16:28:15.113Z,32.76
2019-05-23T16:33:09.802Z,32.91
2019-05-23T16:38:04.541Z,33.23
2019-05-23T16:42:59.129Z,33.35
2019-05-23T16:47:53.728Z,34.35
2019-05-23T16:52:48.310Z,34.15
2019-05-23T16:57:44.557Z,33.49
2019-05-23T17:02:40.780Z,34.05
2019-05-23T17:07:54.539Z,33.17
2019-05-23T17:12:50.755Z,33.24
2019-05-23T17:18:03.472Z,32.77
2019-05-23T17:23:02.827Z,32.23
2019-05-23T17:28:05.151Z,31.40
2019-05-23T17:33:01.455Z,33.15
2019-05-23T17:37:56.113Z,32.93
2019-05-23T17:42:50.833Z,31.66
2019-05-23T17:47:45.530Z,31.43
2019-05-23T17:52:40.238Z,31.69
2019-05-23T17:57:35.154Z,32.96
2019-05-23T18:02:30.753Z,33.11
2019-05-23T18:07:25.583Z,32.20
2019-05-23T18:12:20.861Z,32.98
2019-05-23T18:17:15.455Z,31.62
2019-05-23T18:22:11.986Z,32.12
2019-05-23T18:27:08.353Z,32.61
2019-05-23T18:32:04.662Z,34.82
2019-05-23T18:37:00.284Z,36.72
2019-05-23T18:41:55.036Z,37.47
2019-05-23T18:46:51.341Z,38.13
2019-05-23T18:51:46.010Z,36.28
2019-05-23T18:56:40.820Z,36.71
2019-05-23T19:01:36.992Z,37.25
2019-05-23T19:06:31.749Z,39.22
2019-05-23T19:11:26.492Z,42.19
2019-05-23T19:16:21.137Z,45.32
2019-05-23T19:21:15.724Z,46.83
2019-05-23T19:26:10.554Z,46.60
2019-05-23T19:31:06.644Z,43.55
2019-05-23T19:36:01.370Z,43.96
2019-05-23T19:40:56.213Z,42.38
2019-05-23T19:45:51.855Z,42.15
2019-05-23T19:50:46.718Z,45.17
2019-05-23T19:55:41.362Z,47.24
2019-05-23T20:00:36.841Z,48.32
2019-05-23T20:05:38.407Z,49.98
2019-05-23T20:10:33.888Z,50.92
2019-05-23T20:15:29.238Z,51.91
2019-05-23T20:20:23.833Z,52.52
2019-05-23T20:25:19.648Z,53.22
2019-05-23T20:30:22.035Z,53.84
2019-05-23T20:35:16.848Z,55.06
2019-05-23T20:40:11.904Z,56.25
2019-05-23T20:45:07.693Z,58.20
2019-05-23T20:50:02.368Z,58.76
2019-05-23T20:54:57.028Z,59.32
2019-05-23T20:59:51.793Z,59.81
2019-05-23T21:04:46.513Z,61.97
2019-05-23T21:09:41.188Z,63.02
2019-05-23T21:14:35.780Z,63.96
2019-05-23T21:19:30.463Z,64.57
2019-05-23T21:24:25.056Z,65.65
2019-05-23T21:29:19.640Z,66.08
2019-05-23T21:34:14.239Z,66.91
2019-05-23T21:39:11.159Z,66.69
2019-05-23T21:44:06.342Z,67.64
2019-05-23T21:49:00.938Z,68.20
2019-05-23T21:53:55.538Z,68.06
2019-05-23T21:58:50.119Z,68.58
2019-05-23T22:03:44.484Z,69.13
2019-05-23T22:08:39.803Z,70.05
2019-05-23T22:13:34.470Z,70.70
2019-05-23T22:18:29.529Z,71.24
2019-05-23T22:23:24.269Z,72.39
2019-05-23T22:28:19.666Z,72.89
2019-05-23T22:33:15.969Z,72.68
2019-05-23T22:38:10.843Z,72.93
2019-05-23T22:43:19.957Z,73.45
2019-05-23T22:48:02.588Z,73.66
2019-05-23T22:52:57.185Z,74.04
2019-05-23T22:57:51.761Z,74.93
2019-05-23T23:02:46.558Z,74.51
2019-05-23T23:07:41.216Z,75.60
2019-05-23T23:12:36.155Z,76.17
2019-05-23T23:17:32.648Z,76.85
2019-05-23T23:22:27.238Z,77.52
2019-05-23T23:27:21.910Z,77.76
2019-05-23T23:32:16.579Z,78.36
2019-05-23T23:37:11.228Z,78.87
2019-05-23T23:42:06.831Z,78.46
2019-05-23T23:47:19.851Z,79.48
2019-05-23T23:52:31.913Z,79.64
2019-05-23T23:57:44.330Z,79.90
